Time;durP1;ratioP1;P1;durP2;ratioP2;P2;SDS_P1;SDS_P2;PMS_P1;PMS_P2;Temp;Humidity;BMP_temperature;BMP_pressure;BME280_temperature;BME280_humidity;BME280_pressure;Samples;Min_cycle;Max_cycle;Signal;HPM_P1;HPM_P2
2022/01/21 00:00:38;;;;;;;7.03;1.90;;;;;;;2.05;100.00;103538.44;5055123;28;20055;-74
2022/01/21 00:03:06;;;;;;;17.83;2.47;;;;;;;2.07;100.00;103541.13;5054494;28;20056;-74
2022/01/21 00:05:34;;;;;;;14.43;2.35;;;;;;;2.00;100.00;103539.06;5053527;28;20139;-74
2022/01/21 00:08:02;;;;;;;11.90;2.50;;;;;;;2.02;100.00;103540.91;5056580;28;20459;-72
2022/01/21 00:10:30;;;;;;;12.02;2.53;;;;;;;1.99;100.00;103534.59;5052591;28;21090;-74
2022/01/21 00:13:01;;;;;;;18.40;3.38;;;;;;;1.86;100.00;103536.69;5051877;28;20241;-74
2022/01/21 00:15:28;;;;;;;8.25;2.10;;;;;;;1.88;100.00;103542.00;5054874;28;20053;-72
2022/01/21 00:17:57;;;;;;;10.05;2.50;;;;;;;1.87;100.00;103545.47;5052900;28;20123;-72
2022/01/21 00:31:38;;;;;;;6.25;2.15;;;;;;;1.44;100.00;103548.69;5055612;28;20585;-68
2022/01/21 00:34:07;;;;;;;10.88;2.80;;;;;;;1.36;100.00;103550.03;5054615;28;20083;-72
2022/01/21 00:36:35;;;;;;;7.50;2.20;;;;;;;1.35;100.00;103549.13;5055984;28;20131;-72
2022/01/21 00:39:04;;;;;;;7.70;2.47;;;;;;;1.34;100.00;103559.59;5053378;28;20404;-72
2022/01/21 00:41:37;;;;;;;11.05;2.75;;;;;;;1.32;100.00;103548.97;5054284;28;20056;-74
2022/01/21 00:44:06;;;;;;;8.43;2.03;;;;;;;1.25;100.00;103544.25;5052945;28;20536;-74
2022/01/21 00:46:34;;;;;;;4.65;1.88;;;;;;;1.35;100.00;103538.63;5054644;28;20041;-74
2022/01/21 00:49:09;;;;;;;13.82;2.58;;;;;;;1.33;100.00;103535.00;5054844;28;20076;-69
2022/01/21 00:51:57;;;;;;;8.45;2.45;;;;;;;1.26;100.00;103531.16;5050113;28;20052;-69
2022/01/21 00:54:47;;;;;;;7.15;1.65;;;;;;;1.30;100.00;103532.22;5051130;28;20057;-69
2022/01/21 01:00:31;;;;;;;10.05;2.45;;;;;;;1.21;100.00;103553.72;5054157;28;20068;-74
2022/01/21 01:03:00;;;;;;;7.07;2.03;;;;;;;1.09;100.00;103551.38;5056154;28;20052;-74
2022/01/21 01:05:28;;;;;;;6.68;1.90;;;;;;;1.02;100.00;103559.78;5053375;28;20532;-74
2022/01/21 01:07:58;;;;;;;17.33;2.50;;;;;;;0.98;100.00;103560.44;5053467;28;20068;-74
2022/01/21 01:10:41;;;;;;;6.63;1.98;;;;;;;0.98;100.00;103560.44;5055711;28;20458;-73
2022/01/21 01:21:27;;;;;;;12.07;2.05;;;;;;;1.46;100.00;103557.53;5055283;28;20620;-73
2022/01/21 01:27:36;;;;;;;5.03;2.13;;;;;;;1.53;100.00;103561.38;5050750;28;20139;-75
2022/01/21 01:30:09;;;;;;;6.28;1.65;;;;;;;1.56;100.00;103551.91;5050200;28;20131;-68
2022/01/21 01:36:13;;;;;;;10.80;2.85;;;;;;;1.33;100.00;103537.63;5053768;28;20179;-69
2022/01/21 01:41:56;;;;;;;11.68;2.05;;;;;;;1.29;100.00;103539.22;5050612;28;20056;-68
2022/01/21 01:50:40;;;;;;;6.97;1.80;;;;;;;1.54;100.00;103547.41;5037038;28;20063;-68
2022/01/21 02:02:20;;;;;;;7.50;1.55;;;;;;;1.97;100.00;103528.38;5038651;28;20098;-68
2022/01/21 02:08:25;;;;;;;12.68;2.33;;;;;;;2.11;100.00;103529.94;5054788;28;20150;-75
2022/01/21 02:10:52;;;;;;;5.88;1.35;;;;;;;2.05;100.00;103537.53;5054622;28;20048;-73
2022/01/21 02:13:23;;;;;;;3.70;1.58;;;;;;;1.98;100.00;103533.72;5052537;28;20171;-73
2022/01/21 02:15:59;;;;;;;6.57;2.00;;;;;;;1.84;100.00;103535.72;5052545;28;20193;-73
2022/01/21 02:21:31;;;;;;;5.43;1.50;;;;;;;1.78;100.00;103555.56;5050701;28;20144;-74
2022/01/21 02:24:02;;;;;;;3.90;1.35;;;;;;;1.70;100.00;103557.81;5052041;28;20091;-73
2022/01/21 02:26:31;;;;;;;9.68;2.28;;;;;;;1.61;100.00;103554.75;5049781;28;20052;-74
2022/01/21 02:29:01;;;;;;;16.23;2.75;;;;;;;1.48;100.00;103553.25;5051826;28;20053;-73
2022/01/21 02:31:29;;;;;;;6.65;1.48;;;;;;;1.39;100.00;103558.97;5051082;28;20167;-74
2022/01/21 02:33:58;;;;;;;6.65;1.58;;;;;;;1.32;100.00;103555.97;5053991;28;20045;-74
2022/01/21 02:36:29;;;;;;;7.68;1.75;;;;;;;1.22;100.00;103546.72;5050574;28;20045;-74
2022/01/21 02:38:57;;;;;;;5.40;2.00;;;;;;;1.14;100.00;103543.69;5051022;28;20109;-74
2022/01/21 02:41:25;;;;;;;4.85;1.50;;;;;;;1.17;100.00;103542.97;5053207;28;20127;-74
2022/01/21 02:43:53;;;;;;;8.75;1.30;;;;;;;1.07;100.00;103537.25;5051066;28;20079;-74
2022/01/21 02:46:22;;;;;;;5.35;1.63;;;;;;;1.00;100.00;103543.00;5050971;28;20617;-74
2022/01/21 02:48:51;;;;;;;2.47;1.50;;;;;;;0.96;100.00;103545.41;5051980;28;20203;-74
2022/01/21 02:51:19;;;;;;;5.43;2.35;;;;;;;0.79;100.00;103548.06;5052173;28;20056;-74
2022/01/21 02:54:07;;;;;;;5.32;1.58;;;;;;;0.70;100.00;103545.00;5050146;28;20060;-74
2022/01/21 02:56:37;;;;;;;3.75;1.55;;;;;;;0.69;100.00;103549.31;5051233;28;20047;-74
2022/01/21 02:59:07;;;;;;;7.78;1.92;;;;;;;0.67;100.00;103542.19;5052498;28;20313;-75
2022/01/21 03:02:00;;;;;;;8.63;1.50;;;;;;;0.72;100.00;103538.97;5050689;28;20110;-75
2022/01/21 03:04:36;;;;;;;3.50;1.38;;;;;;;0.71;100.00;103533.63;5053094;28;20133;-75
2022/01/21 03:07:05;;;;;;;6.80;1.60;;;;;;;0.64;100.00;103528.88;5051023;28;20799;-75
2022/01/21 03:09:34;;;;;;;11.02;2.63;;;;;;;0.63;100.00;103524.44;5052941;28;21012;-76
2022/01/21 03:12:02;;;;;;;7.60;2.00;;;;;;;0.58;100.00;103525.94;5050438;28;20067;-76
2022/01/21 03:14:30;;;;;;;8.23;2.58;;;;;;;0.56;100.00;103536.34;5050189;28;20094;-76
2022/01/21 03:16:58;;;;;;;10.10;3.13;;;;;;;0.52;100.00;103545.81;5050643;28;20049;-76
2022/01/21 03:19:27;;;;;;;9.13;1.95;;;;;;;0.52;100.00;103540.56;5051205;28;20109;-76
2022/01/21 03:21:54;;;;;;;10.00;2.33;;;;;;;0.49;100.00;103542.13;5049949;28;20036;-75
2022/01/21 03:24:24;;;;;;;10.68;2.22;;;;;;;0.45;100.00;103538.44;5050873;28;20086;-76
2022/01/21 03:26:53;;;;;;;5.40;2.00;;;;;;;0.45;100.00;103543.69;5045771;28;20598;-76
2022/01/21 03:29:21;;;;;;;10.85;2.47;;;;;;;0.44;100.00;103541.88;5050608;28;20037;-76
2022/01/21 03:31:49;;;;;;;9.00;2.40;;;;;;;0.40;100.00;103541.66;5051451;28;20070;-76
2022/01/21 03:34:17;;;;;;;10.57;2.13;;;;;;;0.43;100.00;103533.94;5051254;28;20061;-75
2022/01/21 03:36:44;;;;;;;11.40;2.05;;;;;;;0.39;100.00;103538.09;5049304;28;20056;-75
2022/01/21 03:39:12;;;;;;;8.38;1.98;;;;;;;0.28;100.00;103540.16;5055792;28;20059;-75
2022/01/21 03:41:40;;;;;;;6.72;1.77;;;;;;;0.24;100.00;103540.84;5048045;28;20052;-74
2022/01/21 03:44:09;;;;;;;5.82;1.88;;;;;;;0.21;100.00;103535.41;5049155;28;20056;-74
2022/01/21 03:47:02;;;;;;;8.02;1.67;;;;;;;0.16;100.00;103547.38;5050897;28;20190;-75
2022/01/21 03:49:37;;;;;;;6.15;1.90;;;;;;;0.12;100.00;103550.66;5049782;28;20060;-75
2022/01/21 03:52:06;;;;;;;7.25;2.00;;;;;;;0.10;100.00;103552.28;5051504;28;20068;-74
2022/01/21 03:54:58;;;;;;;5.87;2.13;;;;;;;0.23;100.00;103552.16;5051840;28;20052;-74
2022/01/21 03:57:32;;;;;;;7.28;1.80;;;;;;;0.30;100.00;103562.16;5051423;28;20041;-69
2022/01/21 04:00:27;;;;;;;7.63;1.48;;;;;;;0.30;100.00;103562.16;5051214;28;20045;-69
2022/01/21 04:03:12;;;;;;;5.57;2.05;;;;;;;0.31;100.00;103560.47;5047793;28;20316;-69
2022/01/21 04:05:57;;;;;;;6.35;1.67;;;;;;;0.30;100.00;103564.78;5033822;28;20410;-69
2022/01/21 04:14:45;;;;;;;4.10;1.58;;;;;;;0.14;100.00;103562.16;5050901;28;20052;-69
2022/01/21 04:20:46;;;;;;;5.97;1.73;;;;;;;0.19;100.00;103563.31;5051787;28;20052;-69
2022/01/21 04:26:13;;;;;;;4.75;1.80;;;;;;;0.25;100.00;103566.25;5054372;28;20147;-69
2022/01/21 04:32:15;;;;;;;6.22;2.15;;;;;;;0.36;100.00;103566.84;5044539;28;20087;-70
2022/01/21 04:35:03;;;;;;;5.28;1.80;;;;;;;0.45;100.00;103559.44;5052417;28;20052;-69
2022/01/21 04:37:57;;;;;;;6.72;1.77;;;;;;;0.49;100.00;103565.78;5037220;28;20907;-69
2022/01/21 04:49:38;;;;;;;19.33;2.33;;;;;;;0.55;100.00;103564.38;5053774;28;20094;-69
2022/01/21 04:53:14;;;;;;;10.52;1.77;;;;;;;0.55;100.00;103559.13;5051800;28;20576;-69
2022/01/21 04:55:50;;;;;;;6.97;1.70;;;;;;;0.43;100.00;103566.34;5055138;28;20058;-69
2022/01/21 04:58:23;;;;;;;;;;;;;;;0.34;100.00;103573.72;5052640;28;20052;-69
2022/01/21 05:00:55;;;;;;;7.13;1.70;;;;;;;0.29;100.00;103568.25;5036797;28;20107;-75
2022/01/21 05:03:23;;;;;;;9.15;2.00;;;;;;;0.25;100.00;103568.00;5052456;28;20057;-75
2022/01/21 05:05:51;;;;;;;8.45;2.35;;;;;;;0.24;100.00;103574.97;5054697;28;20052;-77
2022/01/21 05:08:26;;;;;;;7.35;2.30;;;;;;;0.21;100.00;103566.03;5050890;28;20063;-77
2022/01/21 05:10:55;;;;;;;9.48;2.67;;;;;;;0.26;100.00;103565.44;5054822;28;20080;-77
2022/01/21 05:13:26;;;;;;;12.98;3.25;;;;;;;0.18;100.00;103554.50;5050995;28;20098;-76
2022/01/21 05:16:05;;;;;;;8.73;2.75;;;;;;;0.09;100.00;103558.38;5057347;28;20040;-77
2022/01/21 05:18:32;;;;;;;11.02;3.70;;;;;;;0.03;100.00;103563.28;5052161;28;20073;-74
2022/01/21 05:21:01;;;;;;;9.50;3.20;;;;;;;-0.02;100.00;103556.09;5056066;28;20506;-78
2022/01/21 05:23:29;;;;;;;9.63;3.55;;;;;;;-0.03;100.00;103554.25;5055262;28;20094;-77
2022/01/21 05:26:00;;;;;;;9.55;3.88;;;;;;;-0.08;100.00;103553.09;5055612;28;20175;-78
2022/01/21 05:28:30;;;;;;;4.97;2.38;;;;;;;-0.09;100.00;103555.63;5053391;28;20563;-78
2022/01/21 05:31:01;;;;;;;9.63;2.83;;;;;;;-0.16;100.00;103559.66;5053499;28;20518;-77
2022/01/21 05:33:29;;;;;;;8.18;2.40;;;;;;;-0.16;100.00;103557.03;5054958;28;20074;-78
2022/01/21 05:35:57;;;;;;;7.13;2.45;;;;;;;-0.18;100.00;103568.28;5051363;28;20514;-78
2022/01/21 05:38:26;;;;;;;9.63;2.90;;;;;;;-0.20;100.00;103565.56;5056779;28;20153;-79
2022/01/21 05:40:54;;;;;;;8.25;2.83;;;;;;;-0.18;100.00;103561.28;5053152;28;20816;-78
2022/01/21 05:43:23;;;;;;;5.80;2.53;;;;;;;-0.12;100.00;103568.59;5055055;28;20053;-76
2022/01/21 05:48:37;;;;;;;4.68;1.48;;;;;;;0.34;100.00;103555.34;5051952;28;20094;-76
2022/01/21 05:51:05;;;;;;;6.38;1.50;;;;;;;0.67;100.00;103553.59;5056154;28;20072;-77
2022/01/21 05:53:33;;;;;;;10.27;3.13;;;;;;;0.97;100.00;103553.41;5053752;28;20076;-78
2022/01/21 05:56:02;;;;;;;6.00;1.90;;;;;;;0.88;100.00;103543.28;5053650;28;20060;-78
2022/01/21 05:58:31;;;;;;;11.35;2.65;;;;;;;0.86;100.00;103541.41;5054355;28;20351;-78
2022/01/21 06:01:00;;;;;;;4.57;1.55;;;;;;;0.80;100.00;103548.97;5054156;28;20105;-78
2022/01/21 06:03:28;;;;;;;8.43;2.00;;;;;;;0.71;100.00;103547.66;5053283;28;20420;-78
2022/01/21 06:11:57;;;;;;;3.50;1.58;;;;;;;0.46;100.00;103556.00;5049129;28;20147;-70
2022/01/21 06:23:31;;;;;;;4.82;1.98;;;;;;;0.25;100.00;103574.13;5053580;28;20053;-70
2022/01/21 06:26:18;;;;;;;6.85;2.50;;;;;;;0.25;100.00;103574.13;5049992;28;20052;-70
2022/01/21 06:28:58;;;;;;;7.18;2.38;;;;;;;0.34;100.00;103577.28;5051769;28;20052;-70
2022/01/21 06:32:02;;;;;;;6.28;2.22;;;;;;;0.44;100.00;103570.78;5049782;28;20048;-70
2022/01/21 06:40:33;;;;;;;6.07;2.42;;;;;;;0.31;100.00;103581.47;5038553;28;20078;-70
2022/01/21 06:43:27;;;;;;;5.82;2.80;;;;;;;0.22;100.00;103579.22;5035795;28;20048;-70
2022/01/21 06:46:01;;;;;;;5.07;2.77;;;;;;;0.15;100.00;103593.75;5036452;28;20063;-78
2022/01/21 06:48:31;;;;;;;5.10;2.40;;;;;;;0.13;100.00;103586.59;5051410;28;20159;-78
2022/01/21 06:50:59;;;;;;;8.38;2.78;;;;;;;0.22;100.00;103584.47;5053742;28;20910;-76
2022/01/21 06:53:27;;;;;;;3.72;1.90;;;;;;;0.16;100.00;103592.94;5054797;28;20098;-76
2022/01/21 06:55:55;;;;;;;7.47;2.47;;;;;;;0.19;100.00;103594.84;5053108;28;20185;-76
2022/01/21 06:58:23;;;;;;;6.85;2.42;;;;;;;0.11;100.00;103599.66;5053846;28;20138;-76
2022/01/21 07:00:51;;;;;;;7.07;2.40;;;;;;;0.09;100.00;103588.16;5051082;28;20208;-76
2022/01/21 07:03:19;;;;;;;9.27;2.78;;;;;;;0.12;100.00;103580.47;5051997;28;20040;-76
2022/01/21 07:05:49;;;;;;;8.10;2.45;;;;;;;0.11;100.00;103586.53;5052927;28;20067;-78
2022/01/21 07:08:17;;;;;;;8.80;2.63;;;;;;;0.12;100.00;103590.03;5053011;28;20055;-77
2022/01/21 07:10:45;;;;;;;9.82;2.85;;;;;;;0.10;100.00;103579.47;5054798;28;20730;-77
2022/01/21 07:13:13;;;;;;;6.22;2.58;;;;;;;0.11;100.00;103585.63;5052141;28;20400;-76
2022/01/21 07:15:43;;;;;;;5.90;2.60;;;;;;;0.11;100.00;103581.28;5054121;28;20044;-76
2022/01/21 07:18:14;;;;;;;9.23;2.63;;;;;;;0.10;100.00;103589.97;5050146;28;20139;-70
2022/01/21 07:23:37;;;;;;;12.95;2.90;;;;;;;0.37;100.00;103594.91;5051156;28;20057;-70
2022/01/21 07:26:35;;;;;;;12.52;3.33;;;;;;;0.61;100.00;103587.44;5049127;28;20061;-70
2022/01/21 07:29:09;;;;;;;6.95;2.05;;;;;;;0.78;100.00;103593.56;5051110;28;20048;-71
2022/01/21 07:32:05;;;;;;;7.85;2.13;;;;;;;0.83;100.00;103596.47;5033030;28;20053;-72
2022/01/21 07:34:50;;;;;;;;;;;;;;;0.91;100.00;103600.38;5051422;28;20044;-72
2022/01/21 07:37:37;;;;;;;10.65;2.95;;;;;;;1.24;100.00;103611.75;5043604;28;20509;-71
2022/01/21 07:43:32;;;;;;;12.10;2.35;;;;;;;1.20;100.00;103612.41;5047381;28;20048;-71
2022/01/21 07:46:13;;;;;;;11.60;5.47;;;;;;;1.23;100.00;103611.66;5051413;28;20047;-71
2022/01/21 07:48:47;;;;;;;8.05;3.28;;;;;;;1.15;100.00;103611.25;5049392;28;20130;-71
2022/01/21 07:51:39;;;;;;;10.10;3.00;;;;;;;1.01;100.00;103605.31;5048709;28;20072;-77
2022/01/21 07:54:08;;;;;;;9.40;3.38;;;;;;;0.99;100.00;103604.31;5049283;28;20076;-77
2022/01/21 07:56:37;;;;;;;10.70;2.85;;;;;;;1.00;100.00;103608.75;5050877;28;20477;-77
2022/01/21 07:59:07;;;;;;;10.32;2.85;;;;;;;0.97;100.00;103603.34;5049675;28;20099;-77
2022/01/21 08:01:58;;;;;;;8.43;2.67;;;;;;;1.18;100.00;103610.53;5054403;28;20060;-77
2022/01/21 08:04:26;;;;;;;10.95;2.92;;;;;;;1.19;100.00;103605.34;5056588;28;20053;-76
2022/01/21 08:06:54;;;;;;;13.63;2.85;;;;;;;1.59;100.00;103615.22;5056634;28;20122;-76
2022/01/21 08:09:26;;;;;;;15.35;2.95;;;;;;;1.73;100.00;103613.25;5055817;28;20485;-76
2022/01/21 08:12:18;;;;;;;12.27;2.90;;;;;;;2.15;100.00;103613.53;5054908;28;20060;-75
2022/01/21 08:14:46;;;;;;;10.07;2.25;;;;;;;2.38;100.00;103608.41;5054904;28;20124;-75
2022/01/21 08:17:14;;;;;;;14.00;2.90;;;;;;;2.52;100.00;103609.03;5055335;28;20053;-73
2022/01/21 08:19:42;;;;;;;7.05;2.08;;;;;;;2.58;100.00;103604.06;5056554;28;20109;-74
2022/01/21 08:22:10;;;;;;;14.10;2.75;;;;;;;2.57;100.00;103608.44;5055304;28;20059;-74
2022/01/21 08:24:40;;;;;;;10.18;3.65;;;;;;;2.54;100.00;103610.94;5057206;28;20051;-74
2022/01/21 08:27:08;;;;;;;13.98;3.05;;;;;;;2.54;100.00;103624.09;5052658;28;20551;-72
2022/01/21 08:29:36;;;;;;;9.73;3.20;;;;;;;2.52;100.00;103617.88;5055715;28;20473;-72
2022/01/21 08:32:05;;;;;;;7.15;2.15;;;;;;;2.61;100.00;103612.09;5052893;28;20071;-72
2022/01/21 08:34:35;;;;;;;9.70;2.55;;;;;;;2.62;100.00;103616.53;5057562;28;20052;-72
2022/01/21 08:37:04;;;;;;;13.75;2.92;;;;;;;2.69;100.00;103613.38;5054402;28;20048;-72
2022/01/21 08:39:58;;;;;;;8.80;2.90;;;;;;;2.67;100.00;103609.72;5050647;28;20782;-72
2022/01/21 08:42:27;;;;;;;13.07;3.45;;;;;;;2.76;100.00;103618.06;5056064;28;20492;-72
2022/01/21 08:44:55;;;;;;;11.60;3.40;;;;;;;2.78;100.00;103608.47;5053625;28;20568;-72
2022/01/21 08:47:23;;;;;;;11.60;2.72;;;;;;;2.81;100.00;103605.09;5052252;28;20127;-73
2022/01/21 08:49:51;;;;;;;10.40;2.72;;;;;;;2.90;100.00;103604.59;5055172;28;20124;-72
2022/01/21 08:52:23;;;;;;;11.95;3.47;;;;;;;2.93;100.00;103610.91;5050993;28;20052;-72
2022/01/21 08:54:51;;;;;;;9.77;3.28;;;;;;;3.06;100.00;103600.88;5054372;28;20072;-72
2022/01/21 08:57:22;;;;;;;19.92;3.70;;;;;;;3.07;100.00;103600.06;5055592;28;20973;-72
2022/01/21 08:59:50;;;;;;;17.38;3.20;;;;;;;3.10;100.00;103601.09;5053209;28;20267;-72
2022/01/21 09:02:19;;;;;;;13.02;3.30;;;;;;;3.20;100.00;103602.34;5052386;28;20098;-71
2022/01/21 09:04:47;;;;;;;6.13;2.90;;;;;;;3.26;100.00;103600.00;5055083;28;20087;-72
2022/01/21 09:07:19;;;;;;;11.23;3.63;;;;;;;3.31;100.00;103603.72;5053434;28;20526;-72
2022/01/21 09:09:47;;;;;;;10.95;2.75;;;;;;;3.41;100.00;103599.75;5051454;28;20127;-71
2022/01/21 09:12:17;;;;;;;11.75;3.30;;;;;;;3.46;100.00;103600.84;5051915;28;20051;-71
2022/01/21 09:14:46;;;;;;;10.55;2.72;;;;;;;3.52;100.00;103597.53;5055148;28;20061;-73
2022/01/21 09:17:15;;;;;;;10.40;3.13;;;;;;;3.54;100.00;103603.78;5050758;28;20055;-74
2022/01/21 09:19:42;;;;;;;12.77;2.58;;;;;;;3.59;100.00;103599.56;5054261;28;20506;-74
2022/01/21 09:22:10;;;;;;;11.27;3.03;;;;;;;3.66;100.00;103591.09;5051938;28;20143;-73
2022/01/21 09:24:38;;;;;;;10.52;2.60;;;;;;;3.79;100.00;103592.47;5051312;28;20103;-73
2022/01/21 09:27:06;;;;;;;14.00;3.38;;;;;;;3.91;100.00;103595.59;5055170;28;20051;-73
2022/01/21 09:29:35;;;;;;;9.80;2.72;;;;;;;3.92;100.00;103591.22;5053883;28;20432;-73
2022/01/21 09:32:06;;;;;;;15.30;2.97;;;;;;;4.06;100.00;103584.72;5052578;28;20362;-73
2022/01/21 09:34:33;;;;;;;10.55;2.60;;;;;;;4.22;100.00;103590.59;5057729;28;20044;-73
2022/01/21 09:37:02;;;;;;;13.50;2.90;;;;;;;4.28;100.00;103598.78;5052333;28;20048;-73
2022/01/21 09:39:32;;;;;;;8.57;2.65;;;;;;;4.38;100.00;103603.56;5053436;28;20060;-73
2022/01/21 09:42:02;;;;;;;9.88;2.33;;;;;;;4.44;100.00;103605.53;5052379;28;20052;-73
2022/01/21 09:44:33;;;;;;;5.57;2.13;;;;;;;4.51;100.00;103610.19;5050566;28;20128;-70
2022/01/21 09:47:04;;;;;;;8.75;2.65;;;;;;;4.63;100.00;103596.53;5053069;28;20089;-69
2022/01/21 09:49:41;;;;;;;10.95;2.42;;;;;;;4.66;100.00;103612.53;5055112;28;20048;-70
2022/01/21 09:52:11;;;;;;;9.80;1.77;;;;;;;4.67;100.00;103602.00;5052508;28;20048;-70
2022/01/21 09:55:03;;;;;;;7.35;1.70;;;;;;;4.78;100.00;103610.31;5053237;28;20063;-69
2022/01/21 09:57:38;;;;;;;8.32;1.95;;;;;;;4.81;100.00;103610.44;5035586;28;20126;-69
2022/01/21 10:00:09;;;;;;;4.07;1.17;;;;;;;4.88;100.00;103614.19;5049972;28;20498;-69
2022/01/21 10:02:41;;;;;;;7.93;2.17;;;;;;;4.92;100.00;103612.56;5052618;28;20063;-69
2022/01/21 10:05:10;;;;;;;18.20;3.13;;;;;;;4.96;100.00;103614.47;5051904;28;20223;-69
2022/01/21 10:07:41;;;;;;;14.55;2.17;;;;;;;4.99;100.00;103614.59;5054272;28;20062;-69
2022/01/21 10:10:11;;;;;;;7.18;1.52;;;;;;;5.07;100.00;103614.84;5051142;28;20462;-69
2022/01/21 10:13:01;;;;;;;5.05;1.63;;;;;;;5.10;100.00;103626.44;5052551;28;20071;-70
2022/01/21 10:18:23;;;;;;;6.13;2.05;;;;;;;5.26;100.00;103622.59;5049792;28;20103;-69
2022/01/21 10:21:04;;;;;;;9.93;2.08;;;;;;;5.47;100.00;103632.13;5048639;28;20052;-69
2022/01/21 10:24:07;;;;;;;11.32;2.85;;;;;;;5.73;100.00;103638.28;5053243;28;20060;-69
2022/01/21 10:26:47;;;;;;;9.50;2.10;;;;;;;5.80;100.00;103640.25;5050280;28;20076;-69
2022/01/21 10:29:28;;;;;;;9.07;2.53;;;;;;;5.79;100.00;103634.06;5052637;28;20094;-69
2022/01/21 10:32:01;;;;;;;9.05;2.00;;;;;;;5.79;100.00;103644.69;5055359;28;20048;-69
2022/01/21 10:34:51;;;;;;;6.88;1.92;;;;;;;5.68;100.00;103643.41;5047211;28;20052;-69
2022/01/21 10:37:37;;;;;;;8.00;2.08;;;;;;;5.58;100.00;103639.59;5013535;28;20246;-68
2022/01/21 10:40:19;;;;;;;15.75;2.70;;;;;;;5.51;100.00;103626.06;5050393;28;20523;-69
2022/01/21 10:43:17;;;;;;;8.90;1.83;;;;;;;5.52;100.00;103622.59;5033252;28;20049;-69
2022/01/21 10:46:03;;;;;;;9.75;1.90;;;;;;;5.48;100.00;103620.66;5034051;28;20052;-69
2022/01/21 10:49:08;;;;;;;13.02;3.33;;;;;;;5.50;100.00;103616.31;5049775;28;20052;-69
2022/01/21 10:59:02;;;;;;;6.32;2.10;;;;;;;5.64;100.00;103614.13;5046378;28;20607;-69
2022/01/21 11:05:42;;;;;;;9.50;2.35;;;;;;;5.75;100.00;103612.72;5052862;28;20063;-69
2022/01/21 11:08:40;;;;;;;9.02;2.25;;;;;;;5.74;100.00;103613.59;5049514;28;20037;-69
2022/01/21 11:11:26;;;;;;;7.28;2.00;;;;;;;5.71;100.00;103614.38;5050433;28;20056;-74
2022/01/21 11:13:56;;;;;;;8.70;2.28;;;;;;;5.71;100.00;103611.72;5051295;28;20076;-74
2022/01/21 11:16:25;;;;;;;7.13;1.80;;;;;;;5.74;100.00;103614.47;5050979;28;20122;-74
2022/01/21 11:19:15;;;;;;;6.93;2.25;;;;;;;5.78;100.00;103613.72;5051958;28;20048;-74
2022/01/21 11:21:49;;;;;;;9.00;1.92;;;;;;;5.92;100.00;103614.16;5053366;28;20044;-74
2022/01/21 11:28:09;;;;;;;10.98;2.10;;;;;;;5.89;100.00;103614.06;5049502;28;21021;-69
2022/01/21 11:31:08;;;;;;;6.18;1.73;;;;;;;5.81;100.00;103620.88;5031702;28;20229;-69
2022/01/21 11:33:36;;;;;;;5.57;1.60;;;;;;;5.87;100.00;103621.06;5050360;28;20651;-76
2022/01/21 11:36:05;;;;;;;16.38;2.60;;;;;;;5.88;100.00;103624.63;5051023;28;20131;-75
2022/01/21 11:38:37;;;;;;;10.80;2.00;;;;;;;5.94;100.00;103614.19;5052167;28;20117;-75
2022/01/21 11:41:07;;;;;;;15.02;3.08;;;;;;;5.89;100.00;103616.72;5051043;28;20048;-75
2022/01/21 11:43:38;;;;;;;14.70;2.90;;;;;;;5.86;100.00;103610.44;5049993;28;20113;-75
2022/01/21 11:46:38;;;;;;;12.63;2.45;;;;;;;5.75;100.00;103610.97;5051173;28;20322;-75
2022/01/21 11:49:10;;;;;;;13.10;2.60;;;;;;;5.67;100.00;103614.22;5050614;28;20044;-76
2022/01/21 12:10:13;;;;;;;12.45;3.20;;;;;;;5.81;100.00;103583.78;5053103;28;20045;-71
2022/01/21 12:13:25;;;;;;;4.20;2.33;;;;;;;5.84;100.00;103596.22;5050225;28;20044;-71
2022/01/21 12:19:57;;;;;;;11.55;2.70;;;;;;;5.83;100.00;103579.41;5050362;28;20473;-72
2022/01/21 12:26:23;;;;;;;9.27;3.17;;;;;;;5.87;100.00;103583.94;5051181;28;20109;-72
2022/01/21 13:06:31;;;;;;;10.18;3.17;;;;;;;5.31;100.00;103557.47;5049289;28;20059;-72
2022/01/21 13:10:07;;;;;;;15.77;2.97;;;;;;;5.19;100.00;103563.25;4978122;28;20045;-71
2022/01/21 13:20:03;;;;;;;15.52;3.50;;;;;;;5.08;100.00;103547.84;4985392;28;20181;-72
2022/01/21 13:27:03;;;;;;;14.13;3.10;;;;;;;5.14;100.00;103534.81;4989246;28;20217;-71
2022/01/21 13:30:22;;;;;;;12.88;3.78;;;;;;;5.17;100.00;103534.91;4989266;28;20228;-71
2022/01/21 13:33:14;;;;;;;24.38;4.32;;;;;;;5.12;100.00;103537.38;4991127;28;20423;-71
2022/01/21 13:39:23;;;;;;;18.02;3.83;;;;;;;5.11;100.00;103538.25;4986262;28;20092;-70
2022/01/21 13:42:15;;;;;;;15.27;3.55;;;;;;;5.13;100.00;103527.72;4987734;28;20073;-70
2022/01/21 13:45:11;;;;;;;12.98;3.85;;;;;;;5.13;100.00;103541.84;4990604;28;20124;-70
2022/01/21 13:48:32;;;;;;;19.02;3.92;;;;;;;5.19;100.00;103534.13;4988789;28;20045;-70
2022/01/21 13:51:42;;;;;;;24.13;4.80;;;;;;;5.21;100.00;103537.72;4975762;28;20042;-70
2022/01/21 13:54:56;;;;;;;12.75;3.65;;;;;;;5.23;100.00;103533.38;4992368;28;20120;-70
2022/01/21 13:57:50;;;;;;;11.35;3.38;;;;;;;5.24;100.00;103534.25;4985664;28;20094;-70
2022/01/21 14:01:13;;;;;;;11.00;3.42;;;;;;;5.28;100.00;103535.25;5034700;28;20049;-70
2022/01/21 14:04:11;;;;;;;12.95;3.10;;;;;;;5.27;100.00;103537.00;5052226;28;20139;-70
2022/01/21 14:07:32;;;;;;;16.77;3.13;;;;;;;5.30;100.00;103536.22;5050501;28;20114;-71
2022/01/21 14:10:12;;;;;;;;;;;;;;;5.29;100.00;103542.38;5042618;28;20052;-71
2022/01/21 14:13:23;;;;;;;11.95;3.22;;;;;;;5.27;100.00;103539.66;5049582;28;20015;-71
2022/01/21 14:19:11;;;;;;;11.18;2.85;;;;;;;5.26;100.00;103547.53;5052550;28;20044;-71
2022/01/21 14:27:39;;;;;;;9.48;3.70;;;;;;;5.21;100.00;103542.09;5007790;28;20064;-71
2022/01/21 14:34:08;;;;;;;11.32;3.20;;;;;;;5.19;100.00;103534.13;5004746;28;20344;-71
2022/01/21 14:37:19;;;;;;;12.00;2.40;;;;;;;5.20;100.00;103527.97;5006839;28;20049;-73
2022/01/21 14:40:12;;;;;;;10.93;2.80;;;;;;;5.33;100.00;103533.66;5006970;28;20143;-71
2022/01/21 14:43:18;;;;;;;12.77;2.72;;;;;;;5.45;100.00;103535.81;5011557;28;20041;-71
2022/01/21 14:46:09;;;;;;;11.32;2.60;;;;;;;5.51;100.00;103536.00;5008032;28;20064;-71
2022/01/21 14:56:11;;;;;;;10.32;3.33;;;;;;;5.42;100.00;103524.28;5007771;28;20065;-81
2022/01/21 14:58:41;;;;;;;11.63;3.08;;;;;;;5.38;100.00;103532.06;5007368;28;20148;-80
2022/01/21 15:01:11;;;;;;;16.13;4.00;;;;;;;5.33;100.00;103525.72;5008856;28;20081;-80
2022/01/21 15:03:46;;;;;;;7.07;2.60;;;;;;;5.35;100.00;103537.28;5008486;28;20045;-80
2022/01/21 15:06:18;;;;;;;11.18;3.10;;;;;;;5.31;100.00;103532.72;5009122;28;20080;-80
2022/01/21 15:08:59;;;;;;;9.43;3.03;;;;;;;5.28;100.00;103522.94;5011337;28;20045;-80
2022/01/21 15:11:53;;;;;;;10.65;2.88;;;;;;;5.24;100.00;103524.59;5030607;28;20139;-81
2022/01/21 15:14:26;;;;;;;10.57;3.15;;;;;;;5.17;100.00;103519.91;5053443;28;20094;-81
2022/01/21 15:16:57;;;;;;;6.50;2.67;;;;;;;5.18;100.00;103518.19;5051727;28;20080;-80
2022/01/21 15:19:34;;;;;;;9.45;2.90;;;;;;;5.14;100.00;103529.50;5053383;28;20059;-80
2022/01/21 15:22:07;;;;;;;20.33;3.22;;;;;;;5.14;100.00;103527.78;5051321;28;20094;-79
2022/01/21 15:25:00;;;;;;;10.57;3.10;;;;;;;5.12;100.00;103529.44;5049593;28;20587;-79
2022/01/21 15:27:28;;;;;;;13.98;3.42;;;;;;;5.12;100.00;103536.50;5053542;28;20411;-79
2022/01/21 15:29:56;;;;;;;13.30;3.97;;;;;;;5.11;100.00;103537.34;5050188;28;20149;-79
2022/01/21 15:32:24;;;;;;;7.18;2.70;;;;;;;5.09;100.00;103532.03;5052994;28;20496;-79
2022/01/21 15:34:52;;;;;;;8.68;2.65;;;;;;;5.11;100.00;103535.63;5053273;28;20052;-78
2022/01/21 15:37:20;;;;;;;9.30;3.30;;;;;;;5.07;100.00;103524.88;5050404;28;20561;-79
2022/01/21 15:39:48;;;;;;;8.00;3.00;;;;;;;5.03;100.00;103524.75;5051922;28;20496;-78
2022/01/21 15:42:17;;;;;;;7.25;2.75;;;;;;;4.95;100.00;103525.34;5051207;28;20099;-78
2022/01/21 15:44:45;;;;;;;12.98;3.10;;;;;;;4.88;100.00;103523.34;5051960;28;20497;-78
2022/01/21 15:47:12;;;;;;;12.40;3.10;;;;;;;4.84;100.00;103522.34;5049920;28;20078;-80
2022/01/21 15:49:41;;;;;;;10.45;2.83;;;;;;;4.76;100.00;103519.41;5052766;28;20055;-77